createdAt,value
2023-05-23T00:01:49.745Z,76.30
2023-05-23T00:04:20.484Z,76.30
2023-05-23T00:06:50.653Z,76.40
2023-05-23T00:09:17.967Z,76.40
2023-05-23T00:11:45.584Z,76.40
2023-05-23T00:14:14.365Z,76.40
2023-05-23T00:16:43.076Z,76.50
2023-05-23T00:19:11.389Z,76.50
2023-05-23T00:21:39.468Z,76.50
2023-05-23T00:24:06.480Z,76.50
2023-05-23T00:26:34.510Z,76.50
2023-05-23T00:29:01.894Z,76.60
2023-05-23T00:31:29.168Z,76.60
2023-05-23T00:33:56.210Z,76.60
2023-05-23T00:36:23.262Z,76.70
2023-05-23T00:38:50.266Z,76.70
2023-05-23T00:41:18.629Z,76.70
2023-05-23T00:43:45.773Z,76.80
2023-05-23T00:46:13.208Z,76.80
2023-05-23T00:48:40.440Z,76.80
2023-05-23T00:51:07.617Z,76.90
2023-05-23T00:53:35.632Z,77.00
2023-05-23T00:56:03.610Z,77.00
2023-05-23T00:58:30.962Z,77.10
2023-05-23T01:00:59.972Z,77.10
2023-05-23T01:03:29.052Z,77.20
2023-05-23T01:05:56.794Z,77.30
2023-05-23T01:08:24.022Z,77.30
2023-05-23T01:10:52.122Z,77.30
2023-05-23T01:13:42.064Z,77.40
2023-05-23T01:16:21.871Z,77.40
2023-05-23T01:19:09.505Z,77.50
2023-05-23T01:21:38.449Z,77.40
2023-05-23T01:24:36.758Z,77.50
2023-05-23T01:27:22.052Z,77.50
2023-05-23T01:29:56.937Z,77.50
2023-05-23T01:32:25.595Z,77.50
2023-05-23T01:34:54.476Z,77.60
2023-05-23T01:37:21.689Z,77.50
2023-05-23T01:39:49.146Z,77.50
2023-05-23T01:42:16.573Z,77.60
2023-05-23T01:44:45.536Z,77.60
2023-05-23T01:47:13.449Z,77.60
2023-05-23T01:49:42.815Z,77.60
2023-05-23T01:52:10.200Z,77.60
2023-05-23T01:54:38.918Z,77.50
2023-05-23T01:57:07.035Z,77.60
2023-05-23T01:59:34.018Z,78.30
2023-05-23T02:02:01.362Z,77.70
2023-05-23T02:04:31.416Z,77.70
2023-05-23T02:06:58.427Z,77.60
2023-05-23T02:09:25.615Z,77.60
2023-05-23T02:11:52.924Z,77.70
2023-05-23T02:14:19.937Z,77.70
2023-05-23T02:16:46.859Z,77.70
2023-05-23T02:19:14.107Z,77.70
2023-05-23T02:21:41.217Z,78.30
2023-05-23T02:24:08.167Z,77.70
2023-05-23T02:26:35.154Z,77.60
2023-05-23T02:29:02.261Z,77.60
2023-05-23T02:31:29.525Z,77.60
2023-05-23T02:33:56.563Z,77.60
2023-05-23T02:36:23.514Z,77.50
2023-05-23T02:38:50.810Z,77.50
2023-05-23T02:41:17.807Z,77.40
2023-05-23T02:43:47.654Z,77.40
2023-05-23T02:46:14.576Z,77.40
2023-05-23T02:48:41.601Z,77.40
2023-05-23T02:51:08.729Z,77.50
2023-05-23T02:53:35.811Z,77.40
2023-05-23T02:56:02.813Z,77.40
2023-05-23T02:58:30.122Z,77.30
2023-05-23T03:00:57.220Z,77.40
2023-05-23T03:03:24.212Z,77.30
2023-05-23T03:05:51.735Z,77.30
2023-05-23T03:08:18.672Z,77.30
2023-05-23T03:10:45.874Z,77.30
2023-05-23T03:13:13.337Z,77.30
2023-05-23T03:15:40.637Z,77.20
2023-05-23T03:18:07.860Z,77.30
2023-05-23T03:20:34.877Z,77.20
2023-05-23T03:23:01.873Z,77.20
2023-05-23T03:25:28.979Z,77.20
2023-05-23T03:27:56.199Z,77.10
2023-05-23T03:30:23.261Z,77.10
2023-05-23T03:32:50.518Z,77.10
2023-05-23T03:35:17.642Z,77.00
2023-05-23T03:37:44.651Z,77.00
2023-05-23T03:40:11.933Z,77.00
2023-05-23T03:42:39.938Z,77.00
2023-05-23T03:45:07.622Z,76.90
2023-05-23T03:47:34.782Z,76.90
2023-05-23T03:50:01.934Z,76.90
2023-05-23T03:52:28.889Z,76.90
2023-05-23T03:54:55.931Z,77.00
2023-05-23T03:57:23.026Z,76.90
2023-05-23T03:59:50.679Z,76.90
2023-05-23T04:02:17.772Z,76.80
2023-05-23T04:04:47.123Z,76.80
2023-05-23T04:07:15.864Z,76.80
2023-05-23T04:09:44.574Z,76.80
2023-05-23T04:12:13.530Z,76.80
2023-05-23T04:14:40.596Z,76.80
2023-05-23T04:17:09.503Z,76.70
2023-05-23T04:19:36.956Z,76.80
2023-05-23T04:22:04.096Z,76.80
2023-05-23T04:24:31.058Z,76.80
2023-05-23T04:26:59.407Z,76.80
2023-05-23T04:29:26.656Z,76.90
2023-05-23T04:31:55.094Z,76.90
2023-05-23T04:34:22.525Z,76.90
2023-05-23T04:36:49.833Z,77.00
2023-05-23T04:39:17.093Z,76.90
2023-05-23T04:41:45.431Z,77.60
2023-05-23T04:44:14.659Z,77.00
2023-05-23T04:46:45.823Z,77.00
2023-05-23T04:49:14.542Z,77.10
2023-05-23T04:51:41.510Z,77.10
2023-05-23T04:54:09.718Z,77.10
2023-05-23T04:56:36.771Z,77.20
2023-05-23T04:59:03.690Z,77.20
2023-05-23T05:01:33.509Z,77.20
2023-05-23T05:04:00.776Z,77.30
2023-05-23T05:06:29.234Z,77.50
2023-05-23T05:08:56.186Z,77.70
2023-05-23T05:11:23.101Z,77.70
2023-05-23T05:13:49.997Z,77.80
2023-05-23T05:16:16.942Z,77.90
2023-05-23T05:18:43.872Z,78.00
2023-05-23T05:21:10.837Z,78.10
2023-05-23T05:23:37.870Z,78.30
2023-05-23T05:26:05.541Z,78.40
2023-05-23T05:28:32.559Z,78.50
2023-05-23T05:30:59.591Z,78.60
2023-05-23T05:33:28.540Z,78.60
2023-05-23T05:35:55.572Z,78.60
2023-05-23T05:38:22.628Z,78.70
2023-05-23T05:40:49.617Z,78.70
2023-05-23T05:43:16.596Z,78.70
2023-05-23T05:45:43.565Z,78.60
2023-05-23T05:48:11.910Z,78.60
2023-05-23T05:50:39.213Z,78.60
2023-05-23T05:53:08.177Z,78.70
2023-05-23T05:55:35.160Z,78.60
2023-05-23T05:58:02.286Z,78.60
2023-05-23T06:00:29.378Z,78.60
2023-05-23T06:02:57.794Z,78.50
2023-05-23T06:05:25.922Z,78.40
2023-05-23T06:07:52.874Z,78.40
2023-05-23T06:10:19.973Z,78.30
2023-05-23T06:12:47.212Z,78.20
2023-05-23T06:15:14.886Z,78.20
2023-05-23T06:17:42.440Z,78.10
2023-05-23T06:20:09.828Z,78.00
2023-05-23T06:22:37.140Z,77.90
2023-05-23T06:25:04.490Z,77.80
2023-05-23T06:27:31.501Z,77.70
2023-05-23T06:29:58.385Z,77.70
2023-05-23T06:32:25.361Z,77.60
2023-05-23T06:34:52.286Z,77.50
2023-05-23T06:37:19.189Z,77.40
2023-05-23T06:39:46.120Z,77.40
2023-05-23T06:42:13.019Z,77.30
2023-05-23T06:44:39.957Z,77.00
2023-05-23T06:47:06.916Z,76.40
2023-05-23T06:49:33.839Z,75.80
2023-05-23T06:52:01.180Z,74.90
2023-05-23T06:54:28.195Z,74.00
2023-05-23T06:56:55.189Z,73.10
2023-05-23T06:59:22.176Z,72.20
2023-05-23T07:01:49.119Z,71.00
2023-05-23T07:04:16.138Z,69.90
2023-05-23T07:06:43.259Z,69.10
2023-05-23T07:09:12.143Z,68.50
2023-05-23T07:11:41.179Z,68.00
2023-05-23T07:14:08.211Z,67.50
2023-05-23T07:16:35.198Z,67.00
2023-05-23T07:19:03.488Z,66.40
2023-05-23T07:21:32.379Z,65.70
2023-05-23T07:23:59.461Z,65.10
2023-05-23T07:26:27.635Z,64.60
2023-05-23T07:28:57.088Z,64.30
2023-05-23T07:31:24.225Z,64.00
2023-05-23T07:33:55.941Z,63.60
2023-05-23T07:36:23.746Z,63.40
2023-05-23T07:38:50.900Z,63.40
2023-05-23T07:41:17.936Z,63.40
2023-05-23T07:43:45.939Z,63.30
2023-05-23T07:46:13.106Z,63.10
2023-05-23T07:48:40.126Z,63.00
2023-05-23T07:51:07.217Z,62.90
2023-05-23T07:53:35.034Z,62.90
2023-05-23T07:56:02.065Z,62.80
2023-05-23T07:58:29.197Z,62.80
2023-05-23T08:00:56.279Z,62.70
2023-05-23T08:03:23.210Z,62.60
2023-05-23T08:05:50.580Z,62.50
2023-05-23T08:08:17.716Z,62.40
2023-05-23T08:10:45.841Z,62.40
2023-05-23T08:13:13.374Z,62.50
2023-05-23T08:15:40.398Z,62.60
2023-05-23T08:18:07.681Z,62.80
2023-05-23T08:20:34.722Z,63.00
2023-05-23T08:23:02.353Z,63.10
2023-05-23T08:25:33.870Z,63.30
2023-05-23T08:28:02.941Z,63.30
2023-05-23T08:30:30.488Z,63.50
2023-05-23T08:32:58.156Z,63.60
2023-05-23T08:35:25.758Z,63.70
2023-05-23T08:37:52.924Z,63.80
2023-05-23T08:40:23.793Z,63.90
2023-05-23T08:42:51.487Z,64.00
2023-05-23T08:45:19.005Z,64.10
2023-05-23T08:47:47.267Z,64.10
2023-05-23T08:50:17.571Z,64.20
2023-05-23T08:52:58.839Z,64.30
2023-05-23T08:55:28.273Z,64.50
2023-05-23T08:57:57.863Z,64.60
2023-05-23T09:00:26.355Z,64.70
2023-05-23T09:02:54.858Z,64.90
2023-05-23T09:05:23.935Z,65.00
2023-05-23T09:07:52.082Z,65.10
2023-05-23T09:10:20.739Z,65.20
2023-05-23T09:12:48.686Z,65.30
2023-05-23T09:15:17.442Z,65.50
2023-05-23T09:17:45.876Z,65.50
2023-05-23T09:20:15.456Z,65.60
2023-05-23T09:22:49.546Z,65.60
2023-05-23T09:25:17.150Z,65.70
2023-05-23T09:27:46.894Z,65.60
2023-05-23T09:30:16.217Z,65.50
2023-05-23T09:32:45.383Z,65.30
2023-05-23T09:35:14.454Z,65.20
2023-05-23T09:37:49.288Z,65.20
2023-05-23T09:40:16.901Z,65.20
2023-05-23T09:42:46.074Z,65.20
2023-05-23T09:45:17.206Z,65.20
2023-05-23T09:47:54.011Z,65.30
2023-05-23T09:50:21.544Z,65.30
2023-05-23T09:52:48.750Z,65.30
2023-05-23T09:55:16.191Z,65.30
2023-05-23T09:57:45.631Z,65.30
2023-05-23T10:00:14.342Z,65.40
2023-05-23T10:03:00.381Z,65.40
2023-05-23T10:05:36.039Z,65.40
2023-05-23T10:08:08.909Z,65.50
2023-05-23T10:10:51.231Z,65.50
2023-05-23T10:13:19.656Z,65.50
2023-05-23T10:15:47.805Z,65.50
2023-05-23T10:18:23.671Z,65.50
2023-05-23T10:20:54.506Z,65.50
2023-05-23T10:23:21.874Z,65.50
2023-05-23T10:25:49.390Z,65.60
2023-05-23T10:28:17.179Z,65.70
2023-05-23T10:30:45.711Z,65.70
2023-05-23T10:33:17.050Z,65.70
2023-05-23T10:36:13.853Z,65.80
2023-05-23T10:38:58.195Z,65.80
2023-05-23T10:41:49.013Z,65.90
2023-05-23T10:44:27.453Z,65.90
2023-05-23T10:47:02.756Z,65.90
2023-05-23T10:49:42.712Z,65.90
2023-05-23T10:52:19.627Z,66.00
2023-05-23T10:54:57.374Z,66.00
2023-05-23T10:57:47.153Z,66.00
2023-05-23T11:00:18.704Z,66.10
2023-05-23T11:03:09.455Z,66.20
2023-05-23T11:05:43.758Z,66.90
2023-05-23T11:08:14.870Z,66.30
2023-05-23T11:11:01.749Z,66.60
2023-05-23T11:13:53.882Z,66.80
2023-05-23T11:16:32.141Z,67.10
2023-05-23T11:19:22.100Z,67.50
2023-05-23T11:22:15.865Z,67.90
2023-05-23T11:24:53.042Z,68.30
2023-05-23T11:27:38.202Z,68.80
2023-05-23T11:30:17.828Z,69.20
2023-05-23T11:32:56.120Z,69.70
2023-05-23T11:35:24.156Z,70.10
2023-05-23T11:37:57.081Z,70.40
2023-05-23T11:40:35.473Z,70.70
2023-05-23T11:43:11.317Z,71.00
2023-05-23T11:45:41.451Z,71.30
2023-05-23T11:48:14.710Z,71.50
2023-05-23T11:50:54.933Z,71.70
2023-05-23T11:53:25.909Z,71.80
2023-05-23T11:56:00.343Z,72.00
2023-05-23T11:58:30.244Z,72.10
2023-05-23T12:01:08.458Z,72.20
2023-05-23T12:03:46.393Z,72.40
2023-05-23T12:06:18.831Z,72.40
2023-05-23T12:08:48.516Z,72.50
2023-05-23T12:11:15.779Z,72.60
2023-05-23T12:13:43.407Z,72.60
2023-05-23T12:16:13.955Z,72.70
2023-05-23T12:18:42.633Z,72.80
2023-05-23T12:21:10.188Z,72.80
2023-05-23T12:23:40.191Z,72.90
2023-05-23T12:26:10.557Z,72.90
2023-05-23T12:28:43.718Z,73.00
2023-05-23T12:31:17.979Z,72.90
2023-05-23T12:33:48.027Z,73.00
2023-05-23T12:36:21.822Z,73.30
2023-05-23T12:38:49.356Z,73.00
2023-05-23T12:41:20.111Z,73.00
2023-05-23T12:43:55.043Z,73.00
2023-05-23T12:46:23.578Z,73.10
2023-05-23T12:48:52.013Z,73.10
2023-05-23T12:51:22.601Z,73.20
2023-05-23T12:53:50.223Z,73.10
2023-05-23T12:56:17.244Z,73.20
2023-05-23T12:58:44.250Z,73.20
2023-05-23T13:01:11.613Z,73.20
2023-05-23T13:03:38.833Z,73.20
2023-05-23T13:06:07.985Z,73.20
2023-05-23T13:08:34.952Z,73.30
2023-05-23T13:11:01.928Z,73.20
2023-05-23T13:13:29.874Z,73.30
2023-05-23T13:15:57.183Z,73.30
2023-05-23T13:18:24.263Z,73.30
2023-05-23T13:20:51.571Z,73.40
2023-05-23T13:23:18.989Z,73.40
2023-05-23T13:25:45.941Z,73.40
2023-05-23T13:28:14.181Z,73.40
2023-05-23T13:30:42.169Z,73.50
2023-05-23T13:33:11.010Z,73.50
2023-05-23T13:35:39.368Z,73.50
2023-05-23T13:38:06.593Z,73.50
2023-05-23T13:40:33.691Z,73.50
2023-05-23T13:43:00.801Z,73.50
2023-05-23T13:45:27.764Z,73.50
2023-05-23T13:47:54.897Z,73.50
2023-05-23T13:50:22.146Z,73.50
2023-05-23T13:52:49.598Z,73.50
2023-05-23T13:55:17.500Z,73.50
2023-05-23T13:57:46.273Z,73.50
2023-05-23T14:00:14.389Z,73.50
2023-05-23T14:02:41.502Z,73.50
2023-05-23T14:05:09.356Z,73.50
2023-05-23T14:07:36.817Z,73.50
2023-05-23T14:10:05.286Z,73.40
2023-05-23T14:12:32.260Z,73.50
2023-05-23T14:14:59.192Z,73.40
2023-05-23T14:17:26.187Z,73.40
2023-05-23T14:19:53.196Z,73.40
2023-05-23T14:22:21.208Z,73.40
2023-05-23T14:24:48.362Z,73.40
2023-05-23T14:27:15.413Z,74.00
2023-05-23T14:29:46.659Z,73.40
2023-05-23T14:32:14.008Z,73.40
2023-05-23T14:34:41.151Z,73.30
2023-05-23T14:37:08.082Z,73.30
2023-05-23T14:39:36.065Z,73.30
2023-05-23T14:42:03.162Z,73.30
2023-05-23T14:44:30.189Z,73.30
2023-05-23T14:46:57.675Z,73.30
2023-05-23T14:49:24.862Z,73.90
2023-05-23T14:51:52.128Z,73.30
2023-05-23T14:54:19.525Z,73.30
2023-05-23T14:56:46.763Z,73.30
2023-05-23T14:59:13.915Z,73.30
2023-05-23T15:01:42.018Z,73.30
2023-05-23T15:04:10.067Z,73.30
2023-05-23T15:06:38.683Z,73.30
2023-05-23T15:09:06.153Z,73.20
2023-05-23T15:11:35.179Z,73.20
2023-05-23T15:14:02.331Z,73.20
2023-05-23T15:16:33.153Z,73.10
2023-05-23T15:19:00.862Z,73.10
2023-05-23T15:21:28.185Z,73.10
2023-05-23T15:23:55.909Z,73.00
2023-05-23T15:26:22.886Z,73.00
2023-05-23T15:28:50.002Z,73.00
2023-05-23T15:31:16.932Z,72.90
2023-05-23T15:33:43.923Z,72.90
2023-05-23T15:36:13.245Z,72.80
2023-05-23T15:38:40.645Z,72.80
2023-05-23T15:41:07.518Z,72.80
2023-05-23T15:43:37.881Z,72.80
2023-05-23T15:46:05.538Z,72.70
2023-05-23T15:48:32.552Z,72.70
2023-05-23T15:50:59.473Z,72.60
2023-05-23T15:53:26.427Z,72.60
2023-05-23T15:55:53.529Z,72.60
2023-05-23T15:58:21.746Z,72.50
2023-05-23T16:00:48.812Z,72.50
2023-05-23T16:03:15.940Z,72.80
2023-05-23T16:05:43.154Z,72.40
2023-05-23T16:08:10.392Z,72.40
2023-05-23T16:10:37.496Z,72.40
2023-05-23T16:13:04.688Z,72.30
2023-05-23T16:15:31.658Z,72.40
2023-05-23T16:17:58.846Z,72.30
2023-05-23T16:20:25.844Z,72.30
2023-05-23T16:22:52.816Z,72.30
2023-05-23T16:25:19.803Z,72.30
2023-05-23T16:27:46.879Z,72.20
2023-05-23T16:30:13.930Z,72.20
2023-05-23T16:32:41.004Z,72.20
2023-05-23T16:35:08.403Z,72.20
2023-05-23T16:37:36.953Z,72.10
2023-05-23T16:40:05.325Z,72.10
2023-05-23T16:42:33.835Z,72.10
2023-05-23T16:45:01.124Z,72.00
2023-05-23T16:47:28.183Z,72.00
2023-05-23T16:49:55.257Z,72.00
2023-05-23T16:52:22.631Z,72.00
2023-05-23T16:54:49.667Z,72.50
2023-05-23T16:57:16.576Z,71.90
2023-05-23T16:59:43.600Z,71.80
2023-05-23T17:02:14.383Z,71.80
2023-05-23T17:04:41.597Z,71.90
2023-05-23T17:07:09.668Z,71.80
2023-05-23T17:09:37.480Z,71.80
2023-05-23T17:12:04.989Z,71.90
2023-05-23T17:14:32.090Z,71.80
2023-05-23T17:16:59.252Z,71.80
2023-05-23T17:19:26.478Z,71.80
2023-05-23T17:21:53.725Z,71.90
2023-05-23T17:24:20.769Z,71.90
2023-05-23T17:26:48.021Z,71.90
2023-05-23T17:29:17.459Z,71.90
2023-05-23T17:31:44.590Z,71.90
2023-05-23T17:34:12.850Z,71.90
2023-05-23T17:36:39.816Z,71.90
2023-05-23T17:39:12.637Z,71.90
2023-05-23T17:41:39.678Z,71.90
2023-05-23T17:44:06.949Z,71.80
2023-05-23T17:46:34.307Z,71.70
2023-05-23T17:49:01.374Z,71.50
2023-05-23T17:51:28.386Z,71.30
2023-05-23T17:53:55.380Z,71.00
2023-05-23T17:56:23.855Z,70.60
2023-05-23T17:58:50.988Z,70.40
2023-05-23T18:01:18.258Z,70.30
2023-05-23T18:03:45.426Z,70.20
2023-05-23T18:06:12.620Z,70.00
2023-05-23T18:08:40.998Z,69.80
2023-05-23T18:11:08.046Z,69.60
2023-05-23T18:13:35.216Z,69.30
2023-05-23T18:16:02.151Z,69.10
2023-05-23T18:18:29.269Z,68.80
2023-05-23T18:20:56.526Z,68.60
2023-05-23T18:23:24.895Z,68.40
2023-05-23T18:25:52.002Z,68.20
2023-05-23T18:28:19.050Z,68.10
2023-05-23T18:30:46.105Z,67.90
2023-05-23T18:33:13.095Z,67.80
2023-05-23T18:35:40.499Z,67.70
2023-05-23T18:38:07.808Z,67.50
2023-05-23T18:40:34.807Z,67.30
2023-05-23T18:43:01.795Z,67.20
2023-05-23T18:45:28.848Z,67.00
2023-05-23T18:47:56.441Z,66.90
2023-05-23T18:50:24.565Z,66.80
2023-05-23T18:52:52.633Z,66.60
2023-05-23T18:55:20.362Z,66.50
2023-05-23T18:57:47.403Z,66.40
2023-05-23T19:00:14.837Z,66.20
2023-05-23T19:02:44.640Z,66.00
2023-05-23T19:05:13.221Z,65.90
2023-05-23T19:07:40.657Z,65.70
2023-05-23T19:10:08.123Z,65.50
2023-05-23T19:12:35.241Z,65.30
2023-05-23T19:15:02.843Z,65.20
2023-05-23T19:17:30.319Z,65.00
2023-05-23T19:19:57.316Z,64.80
2023-05-23T19:22:24.420Z,64.60
2023-05-23T19:24:51.796Z,64.20
2023-05-23T19:27:18.959Z,64.00
2023-05-23T19:29:45.906Z,63.70
2023-05-23T19:32:13.005Z,63.50
2023-05-23T19:34:40.087Z,63.30
2023-05-23T19:37:07.074Z,63.00
2023-05-23T19:39:33.989Z,62.80
2023-05-23T19:42:00.944Z,62.70
2023-05-23T19:44:27.885Z,62.50
2023-05-23T19:46:54.883Z,62.40
2023-05-23T19:49:21.919Z,62.20
2023-05-23T19:51:48.862Z,62.10
2023-05-23T19:54:15.908Z,61.90
2023-05-23T19:56:42.828Z,61.80
2023-05-23T19:59:09.730Z,61.60
2023-05-23T20:01:36.738Z,61.40
2023-05-23T20:04:03.905Z,60.90
2023-05-23T20:06:31.368Z,60.20
2023-05-23T20:08:58.244Z,59.90
2023-05-23T20:11:27.061Z,59.70
2023-05-23T20:13:53.952Z,59.60
2023-05-23T20:16:21.064Z,59.50
2023-05-23T20:18:48.076Z,59.40
2023-05-23T20:21:15.313Z,59.30
2023-05-23T20:23:45.173Z,59.30
2023-05-23T20:26:12.430Z,59.20
2023-05-23T20:28:39.335Z,59.10
2023-05-23T20:31:06.501Z,58.90
2023-05-23T20:33:34.610Z,58.90
2023-05-23T20:36:01.738Z,58.80
2023-05-23T20:38:29.126Z,58.70
2023-05-23T20:40:56.031Z,58.60
2023-05-23T20:43:22.984Z,58.60
2023-05-23T20:45:50.599Z,58.50
2023-05-23T20:48:20.049Z,58.60
2023-05-23T20:50:47.691Z,58.50
2023-05-23T20:53:14.610Z,58.40
2023-05-23T20:55:41.771Z,58.40
2023-05-23T20:58:08.848Z,58.40
2023-05-23T21:00:35.866Z,58.30
2023-05-23T21:03:03.044Z,58.30
2023-05-23T21:05:29.961Z,58.30
2023-05-23T21:07:56.908Z,58.50
2023-05-23T21:10:23.804Z,58.60
2023-05-23T21:12:51.022Z,58.80
2023-05-23T21:15:18.839Z,59.00
2023-05-23T21:17:46.039Z,59.10
2023-05-23T21:20:13.900Z,59.30
2023-05-23T21:22:41.157Z,59.50
2023-05-23T21:25:08.353Z,59.70
2023-05-23T21:27:35.275Z,60.00
2023-05-23T21:30:02.702Z,60.10
2023-05-23T21:32:30.784Z,60.30
2023-05-23T21:34:57.741Z,60.50
2023-05-23T21:37:24.996Z,60.80
2023-05-23T21:39:52.739Z,61.00
2023-05-23T21:42:21.090Z,61.30
2023-05-23T21:44:48.239Z,61.60
2023-05-23T21:47:15.183Z,61.90
2023-05-23T21:49:42.269Z,62.10
2023-05-23T21:52:09.337Z,62.40
2023-05-23T21:54:36.317Z,62.60
2023-05-23T21:57:03.317Z,62.90
2023-05-23T21:59:30.277Z,63.20
2023-05-23T22:01:57.428Z,63.40
2023-05-23T22:04:24.452Z,63.70
2023-05-23T22:06:52.005Z,63.90
2023-05-23T22:09:19.076Z,64.10
2023-05-23T22:11:46.181Z,64.30
2023-05-23T22:14:13.187Z,64.40
2023-05-23T22:16:40.310Z,64.60
2023-05-23T22:19:09.880Z,64.90
2023-05-23T22:21:37.119Z,65.10
2023-05-23T22:24:04.890Z,65.30
2023-05-23T22:26:32.315Z,65.50
2023-05-23T22:28:59.367Z,65.80
2023-05-23T22:31:26.585Z,65.90
2023-05-23T22:33:53.723Z,66.10
2023-05-23T22:36:22.238Z,66.40
2023-05-23T22:38:49.342Z,66.60
2023-05-23T22:41:16.665Z,66.80
2023-05-23T22:43:43.699Z,67.00
2023-05-23T22:46:11.188Z,67.30
2023-05-23T22:48:39.191Z,67.50
2023-05-23T22:51:08.071Z,67.70
2023-05-23T22:53:35.093Z,68.00
2023-05-23T22:56:02.792Z,68.20
2023-05-23T22:58:31.379Z,68.40
2023-05-23T23:00:58.314Z,68.70
2023-05-23T23:03:25.281Z,68.90
2023-05-23T23:05:55.135Z,69.10
2023-05-23T23:08:22.499Z,69.30
2023-05-23T23:10:49.463Z,69.60
2023-05-23T23:13:16.541Z,69.80
2023-05-23T23:15:44.056Z,70.00
2023-05-23T23:18:13.544Z,70.20
2023-05-23T23:20:41.649Z,70.40
2023-05-23T23:23:08.816Z,70.60
2023-05-23T23:25:37.083Z,70.80
2023-05-23T23:28:04.110Z,70.90
2023-05-23T23:30:32.353Z,71.10
2023-05-23T23:32:59.315Z,71.30
2023-05-23T23:35:26.283Z,71.40
2023-05-23T23:37:53.210Z,71.60
2023-05-23T23:40:20.107Z,71.80
2023-05-23T23:42:47.067Z,71.90
2023-05-23T23:45:13.952Z,72.10
2023-05-23T23:47:42.597Z,72.90
2023-05-23T23:50:09.681Z,72.40
2023-05-23T23:52:39.232Z,72.50
2023-05-23T23:55:06.538Z,72.70
2023-05-23T23:57:33.561Z,72.80
